Time;durP1;ratioP1;P1;durP2;ratioP2;P2;SDS_P1;SDS_P2;PMS_P1;PMS_P2;Temp;Humidity;BMP_temperature;BMP_pressure;BME280_temperature;BME280_humidity;BME280_pressure;Samples;Min_cycle;Max_cycle;Signal;HPM_P1;HPM_P2
2022/01/08 00:00:15;;;;;;;50.97;26.13;;;;;;;-4.60;95.81;100221.44;5014632;28;20057;-76
2022/01/08 00:02:44;;;;;;;36.08;19.63;;;;;;;-4.66;96.27;100223.56;5030904;28;20553;-76
2022/01/08 00:05:10;;;;;;;28.67;16.45;;;;;;;-4.68;96.14;100236.63;5032359;28;20072;-77
2022/01/08 00:07:36;;;;;;;22.98;14.18;;;;;;;-4.73;96.19;100228.72;5032535;28;20052;-76
2022/01/08 00:10:03;;;;;;;23.42;13.27;;;;;;;-4.74;96.08;100211.69;5031304;28;20486;-76
2022/01/08 00:12:29;;;;;;;21.30;13.38;;;;;;;-4.66;95.86;100211.94;5032097;28;20523;-77
2022/01/08 00:14:55;;;;;;;26.70;14.90;;;;;;;-4.68;95.15;100214.97;5030848;28;20175;-76
2022/01/08 00:17:22;;;;;;;22.30;14.35;;;;;;;-4.71;94.93;100213.72;5032169;28;20041;-76
2022/01/08 00:19:51;;;;;;;24.17;13.73;;;;;;;-4.75;95.45;100203.91;5031811;28;20476;-76
2022/01/08 00:22:16;;;;;;;22.65;13.52;;;;;;;-4.81;95.75;100210.66;5030577;28;20041;-77
2022/01/08 00:24:42;;;;;;;25.17;12.98;;;;;;;-4.81;95.05;100197.88;5032363;28;20033;-76
2022/01/08 00:27:08;;;;;;;21.52;12.95;;;;;;;-4.82;95.35;100193.63;5032067;28;20053;-77
2022/01/08 00:29:33;;;;;;;26.33;14.65;;;;;;;-4.82;95.18;100199.03;5032521;28;20615;-77
2022/01/08 00:31:59;;;;;;;23.27;13.38;;;;;;;-4.85;94.78;100196.97;5031753;28;20120;-76
2022/01/08 00:34:25;;;;;;;23.75;13.73;;;;;;;-4.91;94.82;100194.78;5032034;28;20064;-76
2022/01/08 00:36:50;;;;;;;22.27;14.45;;;;;;;-4.88;94.93;100188.72;5030681;28;20077;-76
2022/01/08 00:39:15;;;;;;;36.47;20.45;;;;;;;-4.88;96.10;100194.13;5031861;28;20045;-77
2022/01/08 00:41:41;;;;;;;34.80;18.27;;;;;;;-4.97;96.72;100180.66;5031588;28;20486;-76
2022/01/08 00:44:06;;;;;;;32.30;17.48;;;;;;;-4.93;96.54;100192.41;5031890;28;20041;-77
2022/01/08 00:46:32;;;;;;;27.75;15.93;;;;;;;-4.97;96.84;100174.47;5032018;28;20046;-76
2022/01/08 00:48:58;;;;;;;22.67;13.85;;;;;;;-5.01;96.70;100190.56;5031757;28;20030;-76
2022/01/08 00:51:23;;;;;;;25.02;14.95;;;;;;;-5.04;97.40;100196.63;5031471;28;20403;-77
2022/01/08 00:53:49;;;;;;;28.17;15.63;;;;;;;-5.03;97.31;100190.09;5031677;28;20088;-76
2022/01/08 00:56:14;;;;;;;24.58;14.45;;;;;;;-4.94;96.09;100196.25;5031598;28;20042;-76
2022/01/08 00:58:41;;;;;;;26.52;16.10;;;;;;;-4.93;97.63;100191.63;5031819;28;20073;-77
2022/01/08 01:01:07;;;;;;;24.20;14.20;;;;;;;-4.92;97.41;100187.78;5030931;28;20076;-76
2022/01/08 01:03:33;;;;;;;22.75;13.95;;;;;;;-4.96;96.43;100190.38;5031465;28;20073;-77
2022/01/08 01:05:58;;;;;;;23.83;14.18;;;;;;;-5.12;96.70;100178.53;5030052;28;20402;-76
2022/01/08 01:08:24;;;;;;;25.02;13.98;;;;;;;-5.12;96.58;100183.97;5013411;28;20418;-76
2022/01/08 01:10:49;;;;;;;24.52;14.10;;;;;;;-5.13;97.80;100176.97;5031066;28;20040;-76
2022/01/08 01:13:15;;;;;;;24.92;14.30;;;;;;;-5.17;97.73;100176.03;5029939;28;20116;-76
2022/01/08 01:15:40;;;;;;;26.88;13.63;;;;;;;-5.17;96.76;100176.03;5030872;28;20041;-76
2022/01/08 01:18:08;;;;;;;24.20;14.20;;;;;;;-5.18;96.53;100177.97;5031051;28;20059;-76
2022/01/08 01:20:33;;;;;;;25.95;14.38;;;;;;;-5.14;97.14;100183.50;5031431;28;20563;-76
2022/01/08 01:25:38;;;;;;;24.65;14.00;;;;;;;-5.12;96.86;100186.66;5013608;28;20045;-76
2022/01/08 01:41:38;;;;;;;23.00;13.15;;;;;;;-5.08;98.34;100146.22;5030650;28;20041;-77
2022/01/08 01:49:20;;;;;;;19.35;12.13;;;;;;;-5.19;97.80;100140.44;5030623;28;20033;-77
2022/01/08 01:51:46;;;;;;;22.42;13.52;;;;;;;-5.28;97.57;100142.41;5013033;28;20471;-77
2022/01/08 01:54:11;;;;;;;25.45;12.70;;;;;;;-5.32;97.60;100138.75;5030635;28;20049;-77
2022/01/08 01:56:37;;;;;;;22.88;12.32;;;;;;;-5.33;97.74;100137.16;5030648;28;20498;-77
2022/01/08 01:59:03;;;;;;;21.20;12.77;;;;;;;-5.37;97.14;100136.25;5030682;28;20088;-77
